Houston, Texas
Traffic Map
Current Weather Conditions
Houston, Texas
Clear
Clear
18°
Feels Like: 18°
Wind Chill: 18° Ceiling: Unl
Heat Index: 18° Visibility: 10mi
Dew Point: 17° Wind: 0mph
Humidity: 93% Direction: ° ()
Pressure: 30.05in Gusts: 0mph
Raw Report DataKIAH 290753Z 00000KT 10SM CLR 18/17 A3005 RMK AO2 SLP177 T01830172
Traffic Incident Summary
Active as of:
Severity:
Category:
InformationThere was an issue retrieving the traffic information for this location. Please try a different location or try again shortly.
Advertisements
Track Severe Weather on mobile